Terminal Aerodrome Forecast
Issued by NWS

Home | Current Version | Previous Version | Text Only | Print | Product List | Glossary On
Versions: 1 2 3 4 5 6 7 8 9 10 11 12 13 14 15 16 17 18 19 20 21 22 23 24 25 26 27
005
FTUS43 KDVN 161606 AAD
TAFCID
TAF AMD
KCID 161606Z 1616/1712 31014KT P6SM OVC050
      TEMPO 1616/1618 2SM -SN BR OVC016
     FM162100 31012KT P6SM BKN030
     FM170100 30009KT P6SM SCT030
     FM170900 25007KT P6SM SCT100=

USA.gov is the U.S. government's official web portal to all federal, state and local government web resources and services.